BGSF

Kangerlussuaq Airport

Kangerlussuaq, Greenland

BGSF 190850Z AUTO 12010KT 100V160 9999NDV OVC065/// 10/02 Q1005

Observed Flight Rules
Aug-19 @ 08:50 UTC (15 minutes ago)
Unavailable
Wind Clouds
120° at 10 knots
  • Overcast at 6,500' AGL
Temperatures Readings
Current 10°C / 50°F
Dewpoint 2°C / 36°F
Humidity 58%
Altimeter 29.68" Hg
Pressure 1005 hPa
Elevation 53
Observed Flight Rules
Aug-19 @ 08:50 UTC
(15 minutes ago)
UNK
Wind
120° at 10 knots
Clouds
  • Overcast at 6,500' AGL
Temperature Dewpoint
10°C / 50°F 2°C / 36°F
Humidity Altimeter Pressure
58% 29.68" Hg 1005 hPa